createdAt,value
2023-02-15T00:02:00.916Z,5.80
2023-02-15T00:04:46.529Z,5.80
2023-02-15T00:07:15.948Z,5.70
2023-02-15T00:09:43.588Z,5.80
2023-02-15T00:12:11.161Z,5.70
2023-02-15T00:14:38.457Z,5.80
2023-02-15T00:17:05.757Z,5.70
2023-02-15T00:19:33.015Z,5.60
2023-02-15T00:22:00.368Z,5.70
2023-02-15T00:24:27.608Z,5.70
2023-02-15T00:26:54.959Z,5.70
2023-02-15T00:29:22.585Z,5.70
2023-02-15T00:31:50.544Z,5.70
2023-02-15T00:34:22.330Z,5.80
2023-02-15T00:36:50.591Z,5.70
2023-02-15T00:39:19.336Z,5.70
2023-02-15T00:41:47.956Z,5.60
2023-02-15T00:44:15.934Z,5.60
2023-02-15T00:46:43.580Z,5.60
2023-02-15T00:49:11.316Z,5.50
2023-02-15T00:51:39.223Z,5.50
2023-02-15T00:54:06.856Z,5.60
2023-02-15T00:56:34.567Z,5.60
2023-02-15T00:59:01.861Z,5.70
2023-02-15T01:01:29.269Z,5.70
2023-02-15T01:03:56.725Z,5.60
2023-02-15T01:06:23.979Z,5.50
2023-02-15T01:08:51.357Z,5.60
2023-02-15T01:11:24.624Z,5.60
2023-02-15T01:13:57.956Z,5.60
2023-02-15T01:16:28.092Z,5.50
2023-02-15T01:18:56.012Z,5.50
2023-02-15T01:21:25.367Z,5.50
2023-02-15T01:23:52.730Z,5.50
2023-02-15T01:26:20.197Z,5.50
2023-02-15T01:28:48.067Z,5.50
2023-02-15T01:31:18.348Z,5.50
2023-02-15T01:33:47.371Z,5.50
2023-02-15T01:36:15.561Z,5.50
2023-02-15T01:38:43.028Z,5.40
2023-02-15T01:41:27.339Z,5.40
2023-02-15T01:43:57.545Z,5.40
2023-02-15T01:46:48.569Z,5.40
2023-02-15T01:49:22.084Z,5.30
2023-02-15T01:51:53.576Z,5.30
2023-02-15T01:54:28.783Z,5.40
2023-02-15T01:57:02.115Z,5.50
2023-02-15T01:59:34.743Z,5.50
2023-02-15T02:02:03.770Z,5.60
2023-02-15T02:04:51.566Z,5.60
2023-02-15T02:07:23.469Z,5.50
2023-02-15T02:09:50.905Z,5.60
2023-02-15T02:12:19.588Z,5.70
2023-02-15T02:14:48.323Z,5.70
2023-02-15T02:17:51.345Z,5.60
2023-02-15T02:20:27.724Z,5.60
2023-02-15T02:23:06.775Z,5.60
2023-02-15T02:26:06.942Z,5.60
2023-02-15T02:28:36.997Z,5.50
2023-02-15T02:32:04.792Z,5.50
2023-02-15T02:34:46.718Z,5.50
2023-02-15T02:37:31.506Z,5.50
2023-02-15T02:40:13.726Z,5.50
2023-02-15T02:42:50.544Z,5.50
2023-02-15T02:45:40.948Z,5.50
2023-02-15T02:48:17.478Z,5.40
2023-02-15T02:50:44.725Z,5.40
2023-02-15T02:53:12.408Z,5.40
2023-02-15T02:55:52.361Z,5.50
2023-02-15T02:58:40.824Z,5.40
2023-02-15T03:01:28.432Z,5.40
2023-02-15T03:04:04.975Z,5.40
2023-02-15T03:06:40.941Z,5.50
2023-02-15T03:09:22.613Z,5.50
2023-02-15T03:11:51.184Z,5.50
2023-02-15T03:14:20.598Z,5.50
2023-02-15T03:16:49.819Z,5.50
2023-02-15T03:19:23.923Z,5.50
2023-02-15T03:22:04.655Z,5.40
2023-02-15T03:24:40.972Z,5.50
2023-02-15T03:27:18.492Z,5.40
2023-02-15T03:29:54.581Z,5.30
2023-02-15T03:32:23.010Z,5.30
2023-02-15T03:34:50.363Z,5.30
2023-02-15T03:37:47.730Z,5.30
2023-02-15T03:40:39.312Z,5.20
2023-02-15T03:43:29.001Z,5.20
2023-02-15T03:46:01.532Z,5.20
2023-02-15T03:48:34.570Z,5.10
2023-02-15T03:51:29.542Z,5.10
2023-02-15T03:53:58.285Z,5.10
2023-02-15T03:56:25.837Z,5.10
2023-02-15T03:59:11.290Z,5.10
2023-02-15T04:01:58.719Z,5.10
2023-02-15T04:04:33.224Z,5.10
2023-02-15T04:07:01.452Z,5.00
2023-02-15T04:09:47.298Z,4.90
2023-02-15T04:12:14.684Z,4.90
2023-02-15T04:15:00.549Z,4.90
2023-02-15T04:17:28.110Z,4.90
2023-02-15T04:20:13.595Z,4.90
2023-02-15T04:22:59.452Z,4.80
2023-02-15T04:25:26.781Z,4.70
2023-02-15T04:27:55.650Z,4.70
2023-02-15T04:30:26.160Z,4.70
2023-02-15T04:32:55.260Z,4.70
2023-02-15T04:35:23.455Z,4.70
2023-02-15T04:37:50.933Z,4.60
2023-02-15T04:40:19.645Z,4.60
2023-02-15T04:42:54.892Z,4.60
2023-02-15T04:45:22.137Z,4.60
2023-02-15T04:47:49.512Z,4.60
2023-02-15T04:50:16.903Z,4.70
2023-02-15T04:52:44.100Z,4.70
2023-02-15T04:55:11.437Z,4.70
2023-02-15T04:57:39.650Z,4.60
2023-02-15T05:00:07.631Z,4.60
2023-02-15T05:02:34.880Z,4.60
2023-02-15T05:05:02.192Z,4.60
2023-02-15T05:07:30.519Z,4.60
2023-02-15T05:09:57.855Z,4.60
2023-02-15T05:12:25.065Z,4.60
2023-02-15T05:14:52.547Z,4.60
2023-02-15T05:17:19.733Z,4.60
2023-02-15T05:19:47.000Z,4.60
2023-02-15T05:22:14.404Z,4.50
2023-02-15T05:25:00.161Z,4.50
2023-02-15T05:27:45.974Z,4.50
2023-02-15T05:30:13.901Z,4.50
2023-02-15T05:32:41.501Z,4.50
2023-02-15T05:35:09.026Z,4.50
2023-02-15T05:37:36.214Z,4.40
2023-02-15T05:40:03.579Z,4.50
2023-02-15T05:42:31.001Z,4.50
2023-02-15T05:44:58.173Z,4.50
2023-02-15T05:47:25.422Z,4.50
2023-02-15T05:49:52.834Z,4.50
2023-02-15T05:52:20.910Z,4.40
2023-02-15T05:54:48.091Z,4.40
2023-02-15T05:57:15.452Z,4.40
2023-02-15T05:59:42.632Z,4.40
2023-02-15T06:02:10.010Z,4.40
2023-02-15T06:04:37.331Z,4.50
2023-02-15T06:07:04.644Z,4.60
2023-02-15T06:09:31.878Z,4.50
2023-02-15T06:11:59.088Z,4.50
2023-02-15T06:14:26.313Z,4.60
2023-02-15T06:16:53.557Z,4.60
2023-02-15T06:19:22.022Z,4.70
2023-02-15T06:21:50.033Z,4.60
2023-02-15T06:24:17.296Z,4.60
2023-02-15T06:26:44.618Z,4.70
2023-02-15T06:29:11.855Z,4.70
2023-02-15T06:31:39.149Z,4.60
2023-02-15T06:34:07.028Z,4.60
2023-02-15T06:36:35.599Z,4.70
2023-02-15T06:39:05.585Z,4.60
2023-02-15T06:41:36.901Z,4.70
2023-02-15T06:44:07.601Z,4.80
2023-02-15T06:46:37.557Z,4.70
2023-02-15T06:49:05.437Z,4.70
2023-02-15T06:51:34.989Z,4.70
2023-02-15T06:54:02.263Z,4.70
2023-02-15T06:56:30.593Z,4.70
2023-02-15T06:58:57.857Z,4.80
2023-02-15T07:01:25.119Z,4.80
2023-02-15T07:03:52.484Z,4.80
2023-02-15T07:06:19.808Z,4.80
2023-02-15T07:08:47.269Z,4.90
2023-02-15T07:11:32.834Z,4.80
2023-02-15T07:13:59.984Z,4.80
2023-02-15T07:16:27.394Z,4.80
2023-02-15T07:18:54.693Z,4.80
2023-02-15T07:21:21.896Z,4.80
2023-02-15T07:23:49.153Z,4.80
2023-02-15T07:26:16.396Z,4.80
2023-02-15T07:28:43.646Z,4.80
2023-02-15T07:31:10.909Z,4.90
2023-02-15T07:33:38.206Z,4.80
2023-02-15T07:36:06.043Z,4.80
2023-02-15T07:38:36.441Z,4.90
2023-02-15T07:41:06.400Z,4.90
2023-02-15T07:43:38.972Z,4.80
2023-02-15T07:46:12.761Z,4.80
2023-02-15T07:48:41.659Z,4.80
2023-02-15T07:51:10.704Z,4.90
2023-02-15T07:53:39.403Z,4.90
2023-02-15T07:56:10.047Z,4.90
2023-02-15T07:58:53.368Z,5.00
2023-02-15T08:01:30.326Z,5.00
2023-02-15T08:03:58.897Z,5.10
2023-02-15T08:06:28.346Z,5.10
2023-02-15T08:08:55.779Z,5.10
2023-02-15T08:11:34.415Z,5.20
2023-02-15T08:14:18.562Z,5.30
2023-02-15T08:16:54.399Z,5.30
2023-02-15T08:19:27.359Z,5.40
2023-02-15T08:21:55.704Z,5.40
2023-02-15T08:24:24.819Z,5.40
2023-02-15T08:26:52.905Z,5.50
2023-02-15T08:29:25.953Z,5.60
2023-02-15T08:32:03.432Z,5.60
2023-02-15T08:34:33.212Z,5.70
2023-02-15T08:37:00.728Z,5.70
2023-02-15T08:39:28.396Z,5.80
2023-02-15T08:41:55.937Z,5.80
2023-02-15T08:44:23.507Z,5.80
2023-02-15T08:46:51.309Z,5.90
2023-02-15T08:49:20.680Z,5.90
2023-02-15T08:51:48.809Z,5.90
2023-02-15T08:54:22.743Z,6.10
2023-02-15T08:56:50.214Z,6.10
2023-02-15T08:59:22.374Z,6.20
2023-02-15T09:01:51.726Z,6.20
2023-02-15T09:04:19.731Z,6.30
2023-02-15T09:06:49.336Z,6.30
2023-02-15T09:09:18.215Z,6.40
2023-02-15T09:11:47.271Z,6.50
2023-02-15T09:14:17.164Z,6.40
2023-02-15T09:16:50.524Z,6.50
2023-02-15T09:19:20.010Z,6.50
2023-02-15T09:21:47.620Z,6.50
2023-02-15T09:24:16.705Z,6.50
2023-02-15T09:26:46.313Z,6.60
2023-02-15T09:29:15.689Z,6.70
2023-02-15T09:31:48.281Z,6.70
2023-02-15T09:34:18.254Z,6.80
2023-02-15T09:36:46.442Z,6.70
2023-02-15T09:39:18.134Z,6.70
2023-02-15T09:42:26.084Z,6.80
2023-02-15T09:45:05.130Z,6.90
2023-02-15T09:47:56.915Z,7.00
2023-02-15T09:51:02.796Z,7.00
2023-02-15T09:53:45.374Z,7.00
2023-02-15T09:56:21.118Z,7.00
2023-02-15T09:59:16.462Z,7.00
2023-02-15T10:01:43.819Z,7.10
2023-02-15T10:04:45.329Z,7.10
2023-02-15T10:07:30.735Z,7.10
2023-02-15T10:10:30.987Z,7.20
2023-02-15T10:12:58.352Z,7.20
2023-02-15T10:15:53.706Z,7.30
2023-02-15T10:18:43.146Z,7.30
2023-02-15T10:21:23.216Z,7.40
2023-02-15T10:24:09.550Z,7.40
2023-02-15T10:26:49.860Z,7.40
2023-02-15T10:29:38.874Z,7.40
2023-02-15T10:32:13.023Z,7.50
2023-02-15T10:34:46.738Z,7.60
2023-02-15T10:37:25.848Z,7.60
2023-02-15T10:40:24.163Z,7.70
2023-02-15T10:43:19.136Z,7.70
2023-02-15T10:46:26.382Z,7.70
2023-02-15T10:49:27.612Z,7.70
2023-02-15T10:52:09.532Z,7.80
2023-02-15T10:55:21.061Z,7.80
2023-02-15T10:58:17.214Z,7.80
2023-02-15T11:01:26.079Z,7.90
2023-02-15T11:04:06.704Z,8.00
2023-02-15T11:06:36.037Z,8.00
2023-02-15T11:09:13.902Z,8.10
2023-02-15T11:11:46.181Z,8.20
2023-02-15T11:14:35.206Z,8.20
2023-02-15T11:17:13.678Z,8.20
2023-02-15T11:19:47.641Z,8.30
2023-02-15T11:22:16.588Z,8.40
2023-02-15T11:24:46.924Z,8.40
2023-02-15T11:27:14.155Z,8.40
2023-02-15T11:30:02.493Z,8.50
2023-02-15T11:32:42.950Z,8.50
2023-02-15T11:35:13.508Z,8.60
2023-02-15T11:37:49.691Z,8.60
2023-02-15T11:40:25.800Z,8.60
2023-02-15T11:43:06.836Z,8.50
2023-02-15T11:45:35.758Z,8.50
2023-02-15T11:48:12.084Z,8.60
2023-02-15T11:50:40.154Z,8.70
2023-02-15T11:53:22.665Z,8.70
2023-02-15T11:55:52.143Z,8.70
2023-02-15T11:59:01.613Z,8.80
2023-02-15T12:01:36.546Z,8.80
2023-02-15T12:04:29.930Z,8.80
2023-02-15T12:07:12.730Z,9.00
2023-02-15T12:10:08.239Z,9.00
2023-02-15T12:12:37.148Z,9.20
2023-02-15T12:15:10.139Z,9.30
2023-02-15T12:17:50.166Z,9.30
2023-02-15T12:20:17.413Z,9.30
2023-02-15T12:23:03.066Z,9.30
2023-02-15T12:25:56.961Z,9.40
2023-02-15T12:28:47.595Z,9.40
2023-02-15T12:31:25.999Z,9.50
2023-02-15T12:33:56.093Z,9.70
2023-02-15T12:36:29.011Z,9.80
2023-02-15T12:39:14.761Z,9.80
2023-02-15T12:42:06.714Z,10.00
2023-02-15T12:44:36.872Z,9.90
2023-02-15T12:47:10.052Z,9.80
2023-02-15T12:49:40.045Z,9.90
2023-02-15T12:52:27.704Z,10.20
2023-02-15T12:54:55.067Z,10.30
2023-02-15T12:57:26.260Z,10.60
2023-02-15T13:00:01.982Z,10.80
2023-02-15T13:02:29.573Z,10.80
2023-02-15T13:04:58.639Z,11.10
2023-02-15T13:07:31.244Z,11.50
2023-02-15T13:09:58.836Z,12.00
2023-02-15T13:12:31.648Z,12.60
2023-02-15T13:15:00.365Z,14.30
2023-02-15T13:17:35.268Z,16.60
2023-02-15T13:20:08.700Z,18.80
2023-02-15T13:22:44.148Z,21.20
2023-02-15T13:25:19.277Z,23.50
2023-02-15T13:27:49.452Z,24.80
2023-02-15T13:30:26.093Z,25.30
2023-02-15T13:32:58.704Z,25.40
2023-02-15T13:35:28.993Z,25.90
2023-02-15T13:38:44.862Z,26.30
2023-02-15T13:41:19.861Z,26.80
2023-02-15T13:44:08.351Z,27.90
2023-02-15T13:47:21.115Z,28.50
2023-02-15T13:50:06.297Z,28.20
2023-02-15T13:52:48.829Z,28.50
2023-02-15T13:55:25.098Z,29.20
2023-02-15T13:58:09.085Z,29.40
2023-02-15T14:00:54.625Z,28.50
2023-02-15T14:03:24.837Z,27.50
2023-02-15T14:05:58.483Z,27.10
2023-02-15T14:08:25.930Z,26.60
2023-02-15T14:10:59.150Z,26.40
2023-02-15T14:13:44.973Z,26.50
2023-02-15T14:16:42.868Z,26.40
2023-02-15T14:19:14.395Z,26.30
2023-02-15T14:22:03.660Z,26.10
2023-02-15T14:25:10.746Z,24.40
2023-02-15T14:27:59.937Z,24.70
2023-02-15T14:30:32.529Z,24.20
2023-02-15T14:33:25.489Z,24.20
2023-02-15T14:35:53.450Z,23.90
2023-02-15T14:38:55.405Z,23.40
2023-02-15T14:41:48.392Z,22.50
2023-02-15T14:44:18.694Z,21.40
2023-02-15T14:47:02.432Z,19.90
2023-02-15T14:49:36.488Z,19.30
2023-02-15T14:52:12.541Z,18.60
2023-02-15T14:54:39.816Z,18.00
2023-02-15T14:57:07.450Z,17.50
2023-02-15T15:00:02.372Z,17.20
2023-02-15T15:02:49.536Z,16.70
2023-02-15T15:05:47.112Z,16.20
2023-02-15T15:08:38.024Z,15.90
2023-02-15T15:11:42.400Z,15.30
2023-02-15T15:14:31.889Z,14.90
2023-02-15T15:17:01.141Z,14.60
2023-02-15T15:19:54.011Z,14.30
2023-02-15T15:25:11.689Z,13.80
2023-02-15T15:27:53.814Z,13.50
2023-02-15T15:30:23.933Z,13.40
2023-02-15T15:32:57.857Z,12.80
2023-02-15T15:35:43.590Z,12.80
2023-02-15T15:38:41.797Z,12.50
2023-02-15T15:41:14.833Z,12.50
2023-02-15T15:43:57.154Z,12.40
2023-02-15T15:46:36.579Z,12.20
2023-02-15T15:49:16.564Z,12.00
2023-02-15T15:51:45.262Z,11.90
2023-02-15T15:54:24.337Z,11.70
2023-02-15T15:57:01.865Z,11.50
2023-02-15T15:59:35.137Z,11.40
2023-02-15T16:02:16.532Z,11.20
2023-02-15T16:04:45.330Z,11.10
2023-02-15T16:07:24.210Z,10.90
2023-02-15T16:10:09.052Z,10.80
2023-02-15T16:12:39.924Z,10.60
2023-02-15T16:15:21.533Z,10.60
2023-02-15T16:17:55.926Z,10.50
2023-02-15T16:20:25.494Z,10.40
2023-02-15T16:23:17.728Z,10.30
2023-02-15T16:26:06.939Z,10.30
2023-02-15T16:28:34.173Z,10.20
2023-02-15T16:31:15.925Z,10.20
2023-02-15T16:33:45.946Z,10.10
2023-02-15T16:36:26.592Z,10.10
2023-02-15T16:38:53.722Z,10.00
2023-02-15T16:41:25.530Z,10.00
2023-02-15T16:43:57.528Z,9.90
2023-02-15T16:46:57.285Z,9.80
2023-02-15T16:49:27.673Z,9.80
2023-02-15T16:52:06.974Z,9.70
2023-02-15T16:54:36.404Z,9.70
2023-02-15T16:57:04.060Z,9.70
2023-02-15T16:59:43.341Z,9.70
2023-02-15T17:02:53.185Z,9.60
2023-02-15T17:05:20.189Z,9.60
2023-02-15T17:08:03.950Z,9.60
2023-02-15T17:10:42.680Z,9.50
2023-02-15T17:13:17.908Z,9.50
2023-02-15T17:16:05.570Z,9.50
2023-02-15T17:18:59.384Z,9.40
2023-02-15T17:21:34.492Z,9.40
2023-02-15T17:24:05.168Z,9.30
2023-02-15T17:26:36.516Z,9.30
2023-02-15T17:29:30.481Z,9.20
2023-02-15T17:32:01.687Z,9.10
2023-02-15T17:34:46.080Z,9.10
2023-02-15T17:37:26.462Z,9.10
2023-02-15T17:39:53.972Z,9.00
2023-02-15T17:42:21.240Z,9.00
2023-02-15T17:44:49.605Z,9.00
2023-02-15T17:47:21.316Z,8.90
2023-02-15T17:49:50.327Z,8.90
2023-02-15T17:52:18.597Z,8.90
2023-02-15T17:55:04.773Z,8.90
2023-02-15T17:57:32.208Z,8.90
2023-02-15T18:00:18.008Z,8.90
2023-02-15T18:03:04.855Z,8.90
2023-02-15T18:05:50.748Z,8.90
2023-02-15T18:08:40.724Z,8.90
2023-02-15T18:11:28.794Z,8.90
2023-02-15T18:14:01.436Z,8.80
2023-02-15T18:16:43.255Z,8.80
2023-02-15T18:19:18.267Z,8.80
2023-02-15T18:21:46.723Z,8.70
2023-02-15T18:24:22.735Z,8.70
2023-02-15T18:26:50.640Z,8.60
2023-02-15T18:29:18.201Z,8.60
2023-02-15T18:31:48.054Z,8.60
2023-02-15T18:34:26.110Z,8.50
2023-02-15T18:36:53.974Z,8.50
2023-02-15T18:39:25.753Z,8.40
2023-02-15T18:41:53.969Z,8.40
2023-02-15T18:44:21.214Z,8.30
2023-02-15T18:46:48.560Z,8.30
2023-02-15T18:49:15.850Z,8.20
2023-02-15T18:51:43.782Z,8.30
2023-02-15T18:54:23.783Z,8.20
2023-02-15T18:56:57.480Z,8.20
2023-02-15T18:59:26.360Z,8.20
2023-02-15T19:01:54.347Z,8.20
2023-02-15T19:04:23.091Z,8.20
2023-02-15T19:06:54.449Z,8.10
2023-02-15T19:09:24.184Z,8.10
2023-02-15T19:11:56.058Z,8.10
2023-02-15T19:14:30.567Z,8.10
2023-02-15T19:16:59.574Z,8.10
2023-02-15T19:19:27.717Z,8.10
2023-02-15T19:21:55.368Z,8.10
2023-02-15T19:24:44.714Z,8.10
2023-02-15T19:27:19.052Z,8.10
2023-02-15T19:29:46.362Z,8.00
2023-02-15T19:32:13.894Z,8.00
2023-02-15T19:34:41.224Z,8.00
2023-02-15T19:37:22.504Z,7.90
2023-02-15T19:39:50.272Z,7.80
2023-02-15T19:42:22.079Z,7.80
2023-02-15T19:44:50.257Z,7.70
2023-02-15T19:47:18.049Z,7.70
2023-02-15T19:49:45.366Z,7.70
2023-02-15T19:52:25.761Z,7.60
2023-02-15T19:54:54.936Z,7.60
2023-02-15T19:57:22.486Z,7.60
2023-02-15T19:59:50.492Z,7.50
2023-02-15T20:02:20.314Z,7.50
2023-02-15T20:04:48.290Z,7.40
2023-02-15T20:07:26.268Z,7.40
2023-02-15T20:09:53.704Z,7.40
2023-02-15T20:12:26.744Z,7.30
2023-02-15T20:14:54.372Z,7.20
2023-02-15T20:17:22.383Z,7.20
2023-02-15T20:19:50.575Z,7.20
2023-02-15T20:22:27.864Z,7.20
2023-02-15T20:24:57.055Z,7.20
2023-02-15T20:27:24.604Z,7.20
2023-02-15T20:29:52.045Z,7.20
2023-02-15T20:32:19.393Z,7.10
2023-02-15T20:34:47.134Z,7.00
2023-02-15T20:37:23.546Z,6.90
2023-02-15T20:39:52.046Z,6.90
2023-02-15T20:42:19.690Z,6.80
2023-02-15T20:44:47.299Z,6.80
2023-02-15T20:47:14.585Z,6.80
2023-02-15T20:49:42.080Z,6.80
2023-02-15T20:52:20.366Z,6.80
2023-02-15T20:54:47.888Z,6.80
2023-02-15T20:57:15.199Z,6.70
2023-02-15T20:59:42.674Z,6.70
2023-02-15T21:02:23.052Z,6.70
2023-02-15T21:04:50.596Z,6.70
2023-02-15T21:07:19.629Z,6.70
2023-02-15T21:09:47.445Z,6.70
2023-02-15T21:12:17.802Z,6.70
2023-02-15T21:14:46.166Z,6.80
2023-02-15T21:17:15.622Z,6.80
2023-02-15T21:19:43.551Z,6.70
2023-02-15T21:22:15.946Z,6.70
2023-02-15T21:24:54.937Z,6.70
2023-02-15T21:27:22.500Z,6.60
2023-02-15T21:29:49.841Z,6.50
2023-02-15T21:32:20.305Z,6.40
2023-02-15T21:34:47.935Z,6.30
2023-02-15T21:37:43.086Z,6.20
2023-02-15T21:40:13.307Z,6.20
2023-02-15T21:42:59.541Z,6.20
2023-02-15T21:45:45.319Z,6.10
2023-02-15T21:48:12.835Z,6.00
2023-02-15T21:50:59.125Z,6.10
2023-02-15T21:53:39.916Z,6.10
2023-02-15T21:56:10.718Z,6.20
2023-02-15T21:58:38.562Z,6.20
2023-02-15T22:01:07.065Z,6.10
2023-02-15T22:03:37.458Z,6.00
2023-02-15T22:06:06.034Z,5.90
2023-02-15T22:08:34.127Z,5.80
2023-02-15T22:11:01.716Z,5.80
2023-02-15T22:13:34.395Z,5.80
2023-02-15T22:16:03.293Z,5.80
2023-02-15T22:18:34.083Z,5.80
2023-02-15T22:21:04.730Z,5.80
2023-02-15T22:23:32.396Z,5.80
2023-02-15T22:26:05.237Z,5.80
2023-02-15T22:28:42.853Z,5.80
2023-02-15T22:31:16.315Z,5.70
2023-02-15T22:33:49.787Z,5.60
2023-02-15T22:36:30.998Z,5.50
2023-02-15T22:38:58.765Z,5.40
2023-02-15T22:41:30.961Z,5.40
2023-02-15T22:43:58.586Z,5.40
2023-02-15T22:46:26.681Z,5.30
2023-02-15T22:48:53.978Z,5.30
2023-02-15T22:51:23.725Z,5.20
2023-02-15T22:53:54.539Z,5.30
2023-02-15T22:56:38.894Z,5.30
2023-02-15T22:59:24.633Z,5.30
2023-02-15T23:01:52.156Z,5.30
2023-02-15T23:04:23.015Z,5.10
2023-02-15T23:06:50.418Z,5.10
2023-02-15T23:09:17.664Z,5.10
2023-02-15T23:11:46.070Z,5.10
2023-02-15T23:14:34.658Z,5.00
2023-02-15T23:17:02.306Z,4.90
2023-02-15T23:19:29.554Z,4.90
2023-02-15T23:21:56.981Z,4.90
2023-02-15T23:24:26.498Z,4.90
2023-02-15T23:26:54.237Z,5.00
2023-02-15T23:29:23.670Z,4.90
2023-02-15T23:31:53.109Z,4.90
2023-02-15T23:34:26.028Z,4.90
2023-02-15T23:36:53.534Z,4.90
2023-02-15T23:39:45.057Z,5.00
2023-02-15T23:42:16.223Z,4.90
2023-02-15T23:44:44.950Z,4.90
2023-02-15T23:47:43.968Z,5.00
2023-02-15T23:50:27.090Z,5.10
2023-02-15T23:52:55.691Z,5.10
2023-02-15T23:55:25.322Z,5.10
2023-02-15T23:57:53.409Z,5.10
